Time;durP1;ratioP1;P1;durP2;ratioP2;P2;SDS_P1;SDS_P2;PMS_P1;PMS_P2;Temp;Humidity;BMP_temperature;BMP_pressure;BME280_temperature;BME280_humidity;BME280_pressure;Samples;Min_cycle;Max_cycle;Signal;HPM_P1;HPM_P2
2023/01/17 00:02:29;;;;;;;1999.90;999.90;;;;;;;3.13;100.00;98204.03;10412261;28;20120;-68
2023/01/17 00:13:00;;;;;;;1999.90;999.90;;;;;;;3.00;100.00;98230.81;10395656;28;20053;-68
2023/01/17 00:18:02;;;;;;;1999.90;999.90;;;;;;;3.10;100.00;98230.09;10381285;28;20042;-68
2023/01/17 01:37:10;;;;;;;1999.90;999.90;;;;;;;1.33;100.00;98393.50;10419344;28;20045;-69
2023/01/17 01:42:16;;;;;;;1999.90;999.90;;;;;;;1.27;100.00;98396.41;10416171;28;20496;-68
2023/01/17 01:47:34;;;;;;;1999.90;999.90;;;;;;;1.48;100.00;98412.41;10418706;28;20096;-68
2023/01/17 01:52:40;;;;;;;1999.90;999.90;;;;;;;1.56;100.00;98423.06;10418719;28;20053;-69
2023/01/17 01:57:46;;;;;;;1999.90;999.90;;;;;;;1.71;100.00;98423.09;10416741;28;20095;-69
2023/01/17 02:02:49;;;;;;;1999.90;999.90;;;;;;;1.75;100.00;98422.84;10399970;28;20056;-69
2023/01/17 02:08:14;;;;;;;1999.90;999.90;;;;;;;1.96;100.00;98427.63;10400375;28;20041;-69
2023/01/17 02:13:18;;;;;;;1999.90;999.90;;;;;;;1.86;100.00;98432.50;10399685;28;20136;-69
2023/01/17 02:18:32;;;;;;;1999.90;999.90;;;;;;;1.71;100.00;98457.47;10400594;28;20480;-69
2023/01/17 02:24:00;;;;;;;1999.90;999.90;;;;;;;1.69;100.00;98473.97;10418144;28;20053;-69
2023/01/17 02:29:23;;;;;;;1999.90;999.90;;;;;;;1.47;100.00;98476.03;10416462;28;20042;-69
2023/01/17 02:34:45;;;;;;;1999.90;999.90;;;;;;;1.35;100.00;98491.38;10400207;28;20057;-69
2023/01/17 02:40:08;;;;;;;1999.90;999.90;;;;;;;1.45;100.00;98485.59;10398961;28;20053;-69
2023/01/17 02:45:16;;;;;;;1999.90;999.90;;;;;;;1.31;100.00;98495.84;10377628;28;20056;-69
2023/01/17 02:50:21;;;;;;;1999.90;999.90;;;;;;;1.41;100.00;98501.31;10399356;28;20049;-69
2023/01/17 02:55:36;;;;;;;1999.90;999.90;;;;;;;1.18;100.00;98512.91;10398633;28;20053;-68
2023/01/17 03:01:00;;;;;;;1999.90;999.90;;;;;;;1.45;100.00;98513.13;10415162;28;20071;-69
2023/01/17 03:06:39;;;;;;;1999.90;999.90;;;;;;;1.58;100.00;98527.00;10415329;28;20053;-69
2023/01/17 03:11:42;;;;;;;1999.90;999.90;;;;;;;1.23;100.00;98539.28;10395149;28;20377;-68
2023/01/17 03:16:44;;;;;;;1999.90;999.90;;;;;;;1.23;100.00;98539.28;10398632;28;20057;-68
2023/01/17 03:21:48;;;;;;;1999.90;999.90;;;;;;;1.36;100.00;98537.69;10400877;28;20140;-69
2023/01/17 03:26:50;;;;;;;1999.90;999.90;;;;;;;1.22;100.00;98535.88;10413488;28;20408;-69
2023/01/17 03:31:52;;;;;;;1999.90;999.90;;;;;;;1.33;100.00;98522.41;10413553;28;20091;-69
2023/01/17 03:36:55;;;;;;;1999.90;999.90;;;;;;;1.23;100.00;98523.81;10415614;28;20053;-69
2023/01/17 03:41:57;;;;;;;1999.90;999.90;;;;;;;1.05;100.00;98539.38;10413521;28;20099;-68
2023/01/17 03:47:00;;;;;;;1999.90;999.90;;;;;;;0.85;100.00;98547.34;10413239;28;20515;-69
2023/01/17 03:52:02;;;;;;;1999.90;999.90;;;;;;;0.90;100.00;98547.94;10415178;28;20099;-69
2023/01/17 03:57:05;;;;;;;1999.90;999.90;;;;;;;0.60;100.00;98558.13;10413860;28;20049;-68
2023/01/17 04:02:07;;;;;;;1999.90;999.90;;;;;;;0.41;100.00;98568.53;10415597;28;20049;-68
2023/01/17 04:07:10;;;;;;;1999.90;999.90;;;;;;;0.52;100.00;98566.22;10413663;28;20409;-69
2023/01/17 04:12:12;;;;;;;1999.90;999.90;;;;;;;0.80;100.00;98565.63;10422413;28;20057;-69
2023/01/17 04:17:16;;;;;;;1999.90;999.90;;;;;;;0.79;100.00;98579.44;10421193;28;20054;-69
2023/01/17 04:22:18;;;;;;;1999.90;999.90;;;;;;;0.77;100.00;98586.38;10392591;28;20061;-69
2023/01/17 04:27:21;;;;;;;1999.90;999.90;;;;;;;0.80;100.00;98577.69;10381613;28;20057;-69
2023/01/17 04:32:23;;;;;;;1999.90;999.90;;;;;;;0.74;100.00;98578.84;10382047;28;20050;-69
2023/01/17 04:37:25;;;;;;;1999.90;999.90;;;;;;;0.70;100.00;98585.03;10490872;23;20125;-63
2023/01/17 04:42:28;;;;;;;1999.90;999.90;;;;;;;0.69;100.00;98581.66;10504715;28;20048;-63
2023/01/17 04:47:30;;;;;;;1999.90;999.90;;;;;;;0.82;100.00;98593.88;10504484;28;20070;-63
2023/01/17 04:52:32;;;;;;;1999.90;999.90;;;;;;;0.84;100.00;98587.75;10485612;28;20565;-63
2023/01/17 04:57:35;;;;;;;1999.90;999.90;;;;;;;0.77;100.00;98585.56;10503441;28;20044;-63
2023/01/17 05:02:37;;;;;;;1999.90;999.90;;;;;;;0.48;100.00;98573.28;10486239;28;20077;-62
2023/01/17 05:07:39;;;;;;;1999.90;999.90;;;;;;;0.77;100.00;98582.97;10502458;28;20053;-63
2023/01/17 05:12:42;;;;;;;1999.90;999.90;;;;;;;0.67;100.00;98583.47;10503635;28;20048;-63
2023/01/17 05:17:44;;;;;;;1999.90;999.90;;;;;;;0.52;100.00;98597.97;10485629;28;20045;-63
2023/01/17 05:22:54;;;;;;;1999.90;999.90;;;;;;;0.54;100.00;98603.06;10500025;28;20053;-63
2023/01/17 05:27:58;;;;;;;1999.90;999.90;;;;;;;0.52;100.00;98610.00;10484979;28;20445;-63
2023/01/17 05:33:01;;;;;;;1999.90;999.90;;;;;;;0.74;100.00;98615.72;10502162;28;20167;-63
2023/01/17 05:38:04;;;;;;;1999.90;999.90;;;;;;;0.59;100.00;98619.09;10502373;28;20052;-63
2023/01/17 05:43:07;;;;;;;1999.90;999.90;;;;;;;0.73;100.00;98619.19;10499817;28;20450;-63
2023/01/17 05:48:09;;;;;;;1999.90;999.90;;;;;;;0.69;100.00;98628.00;10483763;28;20373;-63
2023/01/17 05:53:14;;;;;;;1999.90;999.90;;;;;;;0.72;100.00;98627.00;10501735;28;20454;-63
2023/01/17 05:58:18;;;;;;;1999.90;999.90;;;;;;;0.70;100.00;98628.84;10481512;28;20052;-63
2023/01/17 06:03:21;;;;;;;1999.90;999.90;;;;;;;0.66;100.00;98638.47;10483939;28;20106;-63
2023/01/17 06:08:23;;;;;;;1999.90;999.90;;;;;;;0.71;100.00;98635.66;10499458;28;20048;-63
2023/01/17 06:13:26;;;;;;;1999.90;999.90;;;;;;;0.66;100.00;98635.88;10500720;28;20084;-63
2023/01/17 06:18:28;;;;;;;1999.90;999.90;;;;;;;0.63;100.00;98635.22;10483218;28;20101;-63
2023/01/17 06:23:31;;;;;;;1999.90;999.90;;;;;;;0.53;100.00;98640.00;10480577;28;20579;-63
2023/01/17 06:28:34;;;;;;;1999.90;999.90;;;;;;;0.76;100.00;98640.56;10499833;28;20045;-63
2023/01/17 06:33:36;;;;;;;1999.90;999.90;;;;;;;0.60;100.00;98648.25;10499157;28;20061;-63
2023/01/17 06:38:38;;;;;;;1999.90;999.90;;;;;;;0.53;100.00;98650.31;10499585;28;20403;-63
2023/01/17 06:43:41;;;;;;;1999.90;999.90;;;;;;;0.48;100.00;98654.84;10497608;28;20048;-63
2023/01/17 06:48:43;;;;;;;1999.90;999.90;;;;;;;0.41;100.00;98656.06;10499025;28;20046;-63
2023/01/17 06:53:47;;;;;;;1999.90;999.90;;;;;;;0.64;100.00;98658.31;10498205;28;20121;-63
2023/01/17 06:58:50;;;;;;;1999.90;999.90;;;;;;;0.68;100.00;98651.28;10498734;28;20052;-63
2023/01/17 07:03:53;;;;;;;1999.90;999.90;;;;;;;0.46;100.00;98648.94;10475358;28;20408;-63
2023/01/17 07:08:56;;;;;;;1999.90;999.90;;;;;;;0.50;100.00;98658.19;10498354;28;20051;-63
2023/01/17 07:13:58;;;;;;;1999.90;999.90;;;;;;;0.68;100.00;98659.81;10481083;28;20434;-63
2023/01/17 07:19:00;;;;;;;1999.90;999.90;;;;;;;0.81;100.00;98662.59;10496575;28;20044;-63
2023/01/17 07:24:03;;;;;;;1999.90;999.90;;;;;;;1.05;100.00;98669.97;10497052;28;20093;-63
2023/01/17 07:29:05;;;;;;;1999.90;999.90;;;;;;;1.09;100.00;98666.31;10497886;28;20507;-63
2023/01/17 07:34:08;;;;;;;1999.90;999.90;;;;;;;0.92;100.00;98672.34;10497175;28;20057;-63
2023/01/17 07:39:10;;;;;;;1999.90;999.90;;;;;;;0.84;100.00;98666.75;10478497;28;20506;-63
2023/01/17 07:44:13;;;;;;;1999.90;999.90;;;;;;;0.49;100.00;98670.22;10488633;28;20412;-63
2023/01/17 07:49:15;;;;;;;1999.90;999.90;;;;;;;0.64;100.00;98667.78;10496339;28;20049;-63
2023/01/17 07:54:18;;;;;;;1999.90;999.90;;;;;;;0.39;100.00;98675.88;10497989;28;20049;-63
2023/01/17 07:59:20;;;;;;;1999.90;999.90;;;;;;;0.38;100.00;98674.25;10497138;28;20049;-63
2023/01/17 08:04:25;;;;;;;1999.90;999.90;;;;;;;0.45;100.00;98670.44;10497939;28;20048;-63
2023/01/17 08:09:27;;;;;;;1999.90;999.90;;;;;;;0.58;100.00;98684.38;10479342;28;20045;-63
2023/01/17 08:14:30;;;;;;;1999.90;999.90;;;;;;;0.29;100.00;98693.56;10493962;28;20049;-63
2023/01/17 08:19:32;;;;;;;1999.90;999.90;;;;;;;0.43;100.00;98690.28;10490514;28;20037;-63
2023/01/17 08:24:36;;;;;;;1999.90;999.90;;;;;;;0.34;100.00;98689.00;10496557;28;20052;-63
2023/01/17 08:29:41;;;;;;;1999.90;999.90;;;;;;;0.38;100.00;98684.53;10489915;28;20087;-63
2023/01/17 08:34:44;;;;;;;1999.90;999.90;;;;;;;0.21;100.00;98693.91;10461565;28;20060;-63
2023/01/17 08:39:46;;;;;;;1999.90;999.90;;;;;;;-0.03;100.00;98686.47;10458962;28;20040;-63
2023/01/17 08:44:49;;;;;;;1999.90;999.90;;;;;;;0.38;100.00;98689.69;10469814;28;20045;-63
2023/01/17 08:49:51;;;;;;;1999.90;999.90;;;;;;;0.13;100.00;98699.41;10488602;28;20111;-63
2023/01/17 08:54:54;;;;;;;1999.90;999.90;;;;;;;0.21;100.00;98698.25;10478277;28;20057;-63
2023/01/17 08:59:56;;;;;;;1999.90;999.90;;;;;;;0.28;100.00;98699.59;10503157;28;20417;-63
2023/01/17 09:04:59;;;;;;;1999.90;999.90;;;;;;;0.45;100.00;98699.59;10486202;28;20057;-63
2023/01/17 09:10:02;;;;;;;1999.90;999.90;;;;;;;0.52;100.00;98710.41;10503191;28;20041;-63
2023/01/17 09:15:05;;;;;;;1999.90;999.90;;;;;;;0.52;100.00;98706.13;10485645;28;20079;-63
2023/01/17 09:20:08;;;;;;;1999.90;999.90;;;;;;;1.07;100.00;98709.38;10503341;28;20045;-63
2023/01/17 09:25:10;;;;;;;1999.90;999.90;;;;;;;2.97;100.00;98707.47;10503171;28;20048;-63
2023/01/17 09:30:13;;;;;;;1999.90;999.90;;;;;;;5.60;96.31;98700.03;10485123;28;20048;-63
2023/01/17 09:35:17;;;;;;;1999.90;999.90;;;;;;;6.92;90.19;98694.78;10502374;28;20094;-64
2023/01/17 09:40:21;;;;;;;1999.90;999.90;;;;;;;7.04;80.14;98706.88;10502422;28;20404;-64
2023/01/17 09:45:24;;;;;;;1999.90;999.90;;;;;;;8.64;81.77;98705.59;10484713;28;20182;-64
2023/01/17 09:50:32;;;;;;;1999.90;999.90;;;;;;;9.25;77.73;98707.47;10484352;28;20044;-64
2023/01/17 09:55:52;;;;;;;1999.90;999.90;;;;;;;7.70;74.90;98710.50;10484524;28;20048;-64
2023/01/17 10:01:02;;;;;;;1999.90;999.90;;;;;;;5.44;76.31;98721.00;10501655;28;20384;-64
2023/01/17 10:06:44;;;;;;;1999.90;999.90;;;;;;;5.08;87.26;98729.53;10501180;28;20088;-63
2023/01/17 10:12:05;;;;;;;1999.90;999.90;;;;;;;4.40;89.35;98724.47;10483712;28;20048;-64
2023/01/17 10:17:16;;;;;;;1999.90;999.90;;;;;;;4.77;94.79;98721.25;10501232;28;20055;-64
2023/01/17 10:22:18;;;;;;;1999.90;999.90;;;;;;;6.01;89.23;98729.22;10500830;28;20475;-64
2023/01/17 10:27:44;;;;;;;1999.90;999.90;;;;;;;5.61;92.65;98721.63;10499926;28;20472;-64
2023/01/17 10:32:48;;;;;;;1999.90;999.90;;;;;;;4.68;93.71;98714.09;10482715;28;20063;-64
2023/01/17 10:37:55;;;;;;;1999.90;999.90;;;;;;;4.56;95.64;98719.16;10482165;28;20488;-64
2023/01/17 10:43:18;;;;;;;1999.90;999.90;;;;;;;4.99;91.84;98712.84;10482821;28;20059;-64
2023/01/17 10:48:34;;;;;;;1999.90;999.90;;;;;;;3.82;89.44;98715.28;10481477;28;20063;-64
2023/01/17 10:53:48;;;;;;;1999.90;999.90;;;;;;;4.48;91.51;98708.44;10499666;28;20052;-64
2023/01/17 10:59:07;;;;;;;1999.90;999.90;;;;;;;4.59;93.62;98711.16;10481842;28;20098;-64
2023/01/17 11:04:39;;;;;;;1999.90;999.90;;;;;;;4.37;93.40;98716.94;10499308;28;20052;-64
2023/01/17 11:09:43;;;;;;;1999.90;999.90;;;;;;;4.57;91.95;98712.19;10477468;28;20045;-64
2023/01/17 11:14:57;;;;;;;1999.90;999.90;;;;;;;4.03;87.64;98719.06;10481323;28;20044;-64
2023/01/17 11:20:14;;;;;;;1999.90;999.90;;;;;;;4.19;85.80;98712.94;10497477;28;20396;-64
2023/01/17 11:25:23;;;;;;;1999.90;999.90;;;;;;;4.92;84.91;98707.25;10495440;28;20101;-64
2023/01/17 11:30:28;;;;;;;1999.90;999.90;;;;;;;5.10;87.56;98712.13;10481144;28;20128;-64
2023/01/17 11:35:40;;;;;;;1999.90;999.90;;;;;;;5.03;85.58;98702.16;10492452;28;20117;-64
2023/01/17 11:40:44;;;;;;;1999.90;999.90;;;;;;;5.14;85.65;98701.44;10477863;28;20376;-64
2023/01/17 11:46:00;;;;;;;1999.90;999.90;;;;;;;4.74;86.86;98698.09;10478645;28;20049;-64
2023/01/17 11:51:11;;;;;;;1999.90;999.90;;;;;;;4.63;86.82;98704.03;10497523;28;20472;-64
2023/01/17 11:56:32;;;;;;;1999.90;999.90;;;;;;;4.53;86.54;98700.38;10477229;28;20049;-65
2023/01/17 12:01:45;;;;;;;1999.90;999.90;;;;;;;4.38;85.71;98703.03;10497962;28;20052;-65
2023/01/17 12:07:02;;;;;;;1999.90;999.90;;;;;;;5.71;81.19;98705.28;10480133;28;20113;-65
2023/01/17 12:18:08;;;;;;;1999.90;999.90;;;;;;;4.19;81.02;98695.63;10453358;28;20044;-65
2023/01/17 12:23:35;;;;;;;1999.90;999.90;;;;;;;4.78;83.53;98686.63;10496887;28;20049;-65
2023/01/17 12:28:58;;;;;;;1999.90;999.90;;;;;;;4.43;80.79;98698.38;10496743;28;20399;-65
2023/01/17 12:34:15;;;;;;;1999.90;999.90;;;;;;;4.12;81.59;98694.38;10487421;28;20052;-65
2023/01/17 12:39:23;;;;;;;1999.90;999.90;;;;;;;4.25;84.63;98692.66;10504345;28;20053;-65
2023/01/17 12:45:27;;;;;;;1999.90;999.90;;;;;;;3.77;80.38;98692.25;10486714;28;20483;-65
2023/01/17 12:50:47;;;;;;;1999.90;999.90;;;;;;;3.92;80.63;98693.06;10295307;28;20054;-65
2023/01/17 12:55:59;;;;;;;1999.90;999.90;;;;;;;4.12;82.23;98684.00;10469928;28;20060;-65
2023/01/17 13:01:30;;;;;;;1999.90;999.90;;;;;;;3.87;83.36;98687.34;10504183;28;20098;-65
2023/01/17 13:06:55;;;;;;;1999.90;999.90;;;;;;;3.89;83.64;98690.66;10499334;28;20087;-65
2023/01/17 13:12:05;;;;;;;1999.90;999.90;;;;;;;3.84;83.13;98695.28;10488540;28;20048;-65
2023/01/17 13:17:17;;;;;;;1999.90;999.90;;;;;;;3.32;81.41;98695.00;10486398;28;20075;-65
2023/01/17 13:22:22;;;;;;;1999.90;999.90;;;;;;;3.46;83.18;98683.84;10503360;28;20059;-65
2023/01/17 13:28:12;;;;;;;1999.90;999.90;;;;;;;3.31;80.63;98685.59;10485674;28;20059;-65
2023/01/17 13:33:36;;;;;;;1999.90;999.90;;;;;;;3.52;80.68;98685.19;10458237;28;20197;-65
2023/01/17 13:39:05;;;;;;;1999.90;999.90;;;;;;;3.67;81.26;98678.25;10501869;28;20048;-65
2023/01/17 13:44:23;;;;;;;1999.90;999.90;;;;;;;3.29;78.41;98684.03;10483244;28;20048;-65
2023/01/17 13:49:41;;;;;;;1999.90;999.90;;;;;;;3.30;78.84;98690.88;10486426;28;20055;-65
2023/01/17 13:54:47;;;;;;;1999.90;999.90;;;;;;;3.02;78.96;98695.09;10501488;28;20483;-65
2023/01/17 13:59:50;;;;;;;1999.90;999.90;;;;;;;3.08;83.33;98699.91;10501358;28;20051;-65
2023/01/17 14:05:13;;;;;;;1999.90;999.90;;;;;;;3.17;84.16;98693.34;10501127;28;20128;-65
2023/01/17 14:10:36;;;;;;;1999.90;999.90;;;;;;;2.75;83.27;98695.81;10501427;28;20109;-65
2023/01/17 14:15:48;;;;;;;1999.90;999.90;;;;;;;2.87;82.78;98702.00;10483562;28;20052;-65
2023/01/17 14:21:02;;;;;;;1999.90;999.90;;;;;;;2.79;77.97;98704.22;10483311;28;20431;-65
2023/01/17 14:26:20;;;;;;;1999.90;999.90;;;;;;;2.50;82.10;98716.25;10483200;28;20048;-65
2023/01/17 14:31:23;;;;;;;1999.90;999.90;;;;;;;2.90;81.07;98714.75;10483311;28;20102;-65
2023/01/17 14:36:32;;;;;;;1999.90;999.90;;;;;;;2.28;83.64;98725.22;10482659;28;20056;-65
2023/01/17 14:41:34;;;;;;;1999.90;999.90;;;;;;;2.32;87.68;98733.63;10500723;28;20044;-64
2023/01/17 14:46:36;;;;;;;1999.90;999.90;;;;;;;2.13;87.46;98737.22;10499929;28;20052;-65
2023/01/17 14:51:38;;;;;;;1999.90;999.90;;;;;;;2.00;91.09;98737.09;10499045;28;20082;-65
2023/01/17 14:56:41;;;;;;;1999.90;999.90;;;;;;;1.43;94.76;98727.25;10499525;28;20060;-65
2023/01/17 15:01:54;;;;;;;1999.90;999.90;;;;;;;1.74;95.47;98733.34;10499452;28;20063;-65
2023/01/17 15:07:15;;;;;;;1999.90;999.90;;;;;;;1.62;95.34;98732.25;10483340;28;20056;-65
2023/01/17 15:12:18;;;;;;;1999.90;999.90;;;;;;;1.41;97.70;98734.25;10480741;28;20400;-64
2023/01/17 15:17:25;;;;;;;1999.90;999.90;;;;;;;1.31;98.53;98733.03;10498935;28;20052;-65
2023/01/17 15:22:28;;;;;;;1999.90;999.90;;;;;;;1.13;100.00;98734.00;10499967;28;20063;-65
2023/01/17 15:27:31;;;;;;;1999.90;999.90;;;;;;;1.08;100.00;98736.84;10498819;28;20056;-65
2023/01/17 15:32:36;;;;;;;1999.90;999.90;;;;;;;1.08;100.00;98742.81;10498613;28;20051;-65
2023/01/17 15:37:40;;;;;;;1999.90;999.90;;;;;;;0.81;100.00;98746.78;10463962;28;20070;-65
2023/01/17 15:42:43;;;;;;;1999.90;999.90;;;;;;;0.60;100.00;98748.69;10480865;28;20063;-65
2023/01/17 15:47:46;;;;;;;1999.90;999.90;;;;;;;0.69;100.00;98748.22;10480423;28;20053;-65
2023/01/17 15:52:55;;;;;;;1999.90;999.90;;;;;;;0.72;100.00;98748.06;10478308;28;20067;-65
2023/01/17 15:57:57;;;;;;;1999.90;999.90;;;;;;;0.31;100.00;98756.09;10479973;28;20048;-65
2023/01/17 16:02:59;;;;;;;1999.90;999.90;;;;;;;0.30;100.00;98754.41;10479550;28;20064;-64
2023/01/17 16:08:02;;;;;;;1999.90;999.90;;;;;;;0.23;100.00;98764.16;10503924;28;20049;-64
2023/01/17 16:13:07;;;;;;;1999.90;999.90;;;;;;;0.17;100.00;98765.28;10503942;28;20480;-64
2023/01/17 16:18:23;;;;;;;1999.90;999.90;;;;;;;0.23;100.00;98774.44;10504942;28;20098;-64
2023/01/17 16:23:26;;;;;;;1999.90;999.90;;;;;;;-0.02;100.00;98772.19;10487167;28;20049;-64
2023/01/17 16:28:28;;;;;;;1999.90;999.90;;;;;;;-0.01;100.00;98776.44;10486897;28;20045;-64
2023/01/17 16:33:31;;;;;;;1999.90;999.90;;;;;;;0.18;100.00;98776.41;10504001;28;20059;-64
2023/01/17 16:38:33;;;;;;;1999.90;999.90;;;;;;;-0.17;100.00;98773.72;10504036;28;20052;-64
2023/01/17 16:43:36;;;;;;;1999.90;999.90;;;;;;;-0.24;100.00;98780.88;10497060;28;20052;-64
2023/01/17 16:48:38;;;;;;;1999.90;999.90;;;;;;;-0.24;100.00;98783.47;10491273;22;20056;-67
2023/01/17 16:53:40;;;;;;;1999.90;999.90;;;;;;;-0.10;100.00;98785.44;10484568;28;20060;-67
2023/01/17 16:58:43;;;;;;;1999.90;999.90;;;;;;;-0.35;100.00;98796.00;10524602;28;20062;-67
2023/01/17 17:03:45;;;;;;;1999.90;999.90;;;;;;;-0.20;100.00;98805.59;10503014;28;20483;-67
2023/01/17 17:08:48;;;;;;;1999.90;999.90;;;;;;;-0.31;100.00;98805.22;10503862;28;20052;-67
2023/01/17 17:13:51;;;;;;;1999.90;999.90;;;;;;;-0.61;100.00;98817.69;10503799;28;20052;-67
2023/01/17 17:18:58;;;;;;;1999.90;999.90;;;;;;;-0.15;100.00;98818.25;10482934;28;20055;-67
2023/01/17 17:24:01;;;;;;;1999.90;999.90;;;;;;;-0.49;100.00;98817.16;10503230;28;20052;-67
2023/01/17 17:29:05;;;;;;;1999.90;999.90;;;;;;;-0.42;100.00;98830.56;10502744;28;20053;-67
2023/01/17 17:34:09;;;;;;;1999.90;999.90;;;;;;;-0.56;100.00;98826.84;10485274;28;20106;-67
2023/01/17 17:39:16;;;;;;;1999.90;999.90;;;;;;;-0.71;100.00;98831.84;10499332;28;20049;-67
2023/01/17 17:44:18;;;;;;;1999.90;999.90;;;;;;;-0.53;100.00;98832.78;10493613;28;20048;-67
2023/01/17 17:49:21;;;;;;;1999.90;999.90;;;;;;;-0.69;100.00;98846.31;10492335;28;20488;-66
2023/01/17 17:54:26;;;;;;;1999.90;999.90;;;;;;;-0.71;100.00;98860.94;10483361;28;20388;-67
2023/01/17 17:59:28;;;;;;;1999.90;999.90;;;;;;;-0.59;100.00;98865.56;10498984;28;20510;-66
2023/01/17 18:04:31;;;;;;;1999.90;999.90;;;;;;;-0.75;100.00;98869.69;10498227;28;20057;-66
2023/01/17 18:09:33;;;;;;;1999.90;999.90;;;;;;;-0.77;100.00;98871.50;10501516;28;20041;-66
2023/01/17 18:14:35;;;;;;;1999.90;999.90;;;;;;;-0.62;100.00;98878.56;10499226;28;20053;-66
2023/01/17 18:19:38;;;;;;;1999.90;999.90;;;;;;;-0.78;100.00;98877.50;10500526;28;20127;-67
2023/01/17 18:24:41;;;;;;;1999.90;999.90;;;;;;;-0.81;100.00;98886.22;10484375;28;20138;-66
2023/01/17 18:29:43;;;;;;;1999.90;999.90;;;;;;;-0.91;100.00;98894.34;10507067;28;20063;-66
2023/01/17 18:34:46;;;;;;;1999.90;999.90;;;;;;;-0.80;100.00;98897.31;10537147;28;20055;-66
2023/01/17 18:39:48;;;;;;;1999.90;999.90;;;;;;;-0.94;100.00;98914.13;10509525;28;20122;-66
2023/01/17 18:44:50;;;;;;;1999.90;999.90;;;;;;;-0.90;100.00;98919.97;10500082;28;20056;-67
2023/01/17 18:49:53;;;;;;;1999.90;999.90;;;;;;;-0.45;100.00;98911.25;10499604;28;20090;-66
2023/01/17 18:54:55;;;;;;;1999.90;999.90;;;;;;;-0.63;100.00;98910.28;10497035;28;20060;-67
2023/01/17 18:59:57;;;;;;;1999.90;999.90;;;;;;;-0.71;100.00;98914.91;10497713;28;20048;-64
2023/01/17 19:05:04;;;;;;;1999.90;999.90;;;;;;;-0.89;100.00;98924.22;10481774;28;20049;-64
2023/01/17 19:10:07;;;;;;;1999.90;999.90;;;;;;;-0.64;100.00;98916.34;10497328;28;20056;-64
2023/01/17 19:15:09;;;;;;;1999.90;999.90;;;;;;;-0.49;100.00;98916.59;10497505;28;20110;-64
2023/01/17 19:20:12;;;;;;;1999.90;999.90;;;;;;;-0.34;100.00;98923.66;10496258;28;20048;-64
2023/01/17 19:25:14;;;;;;;1999.90;999.90;;;;;;;-0.52;100.00;98920.13;10496820;28;20511;-64
2023/01/17 19:30:18;;;;;;;1999.90;999.90;;;;;;;-0.36;100.00;98922.88;10497855;28;20052;-65
2023/01/17 19:35:20;;;;;;;1999.90;999.90;;;;;;;-0.34;99.84;98933.94;10480999;28;20131;-64
2023/01/17 19:40:25;;;;;;;1999.90;999.90;;;;;;;-0.38;100.00;98935.81;10477721;28;20048;-64
2023/01/17 19:45:27;;;;;;;1999.90;999.90;;;;;;;-0.21;98.35;98940.22;10495551;28;20426;-64
2023/01/17 19:50:29;;;;;;;1999.90;999.90;;;;;;;-0.42;99.51;98939.41;10495754;28;20052;-64
2023/01/17 19:55:31;;;;;;;1999.90;999.90;;;;;;;-0.19;97.41;98942.72;10498180;28;20048;-64
2023/01/17 20:00:34;;;;;;;1999.90;999.90;;;;;;;-0.31;98.96;98943.28;10497017;28;20044;-64
2023/01/17 20:05:55;;;;;;;1999.90;999.90;;;;;;;-0.28;97.56;98946.53;10498440;28;20052;-65
2023/01/17 20:11:13;;;;;;;1999.90;999.90;;;;;;;-0.27;94.94;98942.22;10498119;28;20041;-66
2023/01/17 20:16:16;;;;;;;1999.90;999.90;;;;;;;-0.25;96.39;98951.56;10479557;28;20055;-66
2023/01/17 20:21:24;;;;;;;1999.90;999.90;;;;;;;-0.52;98.66;98952.69;10444617;28;20133;-66
2023/01/17 20:26:34;;;;;;;1999.90;999.90;;;;;;;-0.21;95.23;98952.25;10462928;28;20044;-65
2023/01/17 20:31:37;;;;;;;1999.90;999.90;;;;;;;-0.21;96.34;98972.84;10498566;28;20108;-65
2023/01/17 20:36:40;;;;;;;1999.90;999.90;;;;;;;-0.31;96.17;98966.41;10476209;28;20106;-65
2023/01/17 20:41:45;;;;;;;1999.90;999.90;;;;;;;-0.35;97.99;98965.72;10494066;28;20407;-65
2023/01/17 20:46:47;;;;;;;1999.90;999.90;;;;;;;-0.19;96.89;98966.72;10478957;28;20052;-65
2023/01/17 20:51:49;;;;;;;1999.90;999.90;;;;;;;-0.12;94.65;98959.56;10479650;28;20101;-66
2023/01/17 20:56:52;;;;;;;1999.90;999.90;;;;;;;-0.27;95.43;98963.66;10485991;28;20411;-65
2023/01/17 21:01:54;;;;;;;1999.90;999.90;;;;;;;-0.04;95.71;98964.41;10459964;28;20067;-65
2023/01/17 21:06:57;;;;;;;1999.90;999.90;;;;;;;-0.14;94.22;98965.69;10486303;28;20136;-65
2023/01/17 21:12:00;;;;;;;1999.90;999.90;;;;;;;-0.24;95.71;98968.66;10483415;28;20102;-65
2023/01/17 21:17:02;;;;;;;1999.90;999.90;;;;;;;-0.19;95.91;98978.75;10502202;28;20044;-65
2023/01/17 21:22:05;;;;;;;1999.90;999.90;;;;;;;-0.41;98.05;98976.25;10485355;28;20530;-65
2023/01/17 21:27:07;;;;;;;1999.90;999.90;;;;;;;-0.50;97.25;98976.63;10501683;28;20060;-65
2023/01/17 21:32:10;;;;;;;1999.90;999.90;;;;;;;-0.50;98.92;98976.63;10500802;28;20045;-65
2023/01/17 21:37:12;;;;;;;1999.90;999.90;;;;;;;-0.39;98.83;98977.88;10481014;28;20060;-65
2023/01/17 21:42:14;;;;;;;1999.90;999.90;;;;;;;-0.80;100.00;98982.09;10460649;28;20055;-65
2023/01/17 21:47:17;;;;;;;1999.90;999.90;;;;;;;-0.79;100.00;98984.63;10460443;28;20053;-65
2023/01/17 21:52:19;;;;;;;1999.90;999.90;;;;;;;-0.92;100.00;98993.72;10467016;28;20052;-65
2023/01/17 22:02:46;;;;;;;1999.90;999.90;;;;;;;-0.86;100.00;98985.75;10500732;28;20049;-65
2023/01/17 22:08:13;;;;;;;1999.90;999.90;;;;;;;-0.80;100.00;98995.78;10501126;28;20379;-66
2023/01/17 22:13:17;;;;;;;1999.90;999.90;;;;;;;-0.87;100.00;98990.97;10475691;28;20044;-66
2023/01/17 22:18:20;;;;;;;1999.90;999.90;;;;;;;-0.69;100.00;98995.38;10498995;28;20059;-66
2023/01/17 22:23:22;;;;;;;1999.90;999.90;;;;;;;-0.81;100.00;98991.56;10501082;28;20045;-66
2023/01/17 22:28:25;;;;;;;1999.90;999.90;;;;;;;-0.73;100.00;99008.41;10447265;28;20484;-66
2023/01/17 22:33:27;;;;;;;1999.90;999.90;;;;;;;-1.08;100.00;99005.47;10458563;28;20056;-65
2023/01/17 22:38:30;;;;;;;1999.90;999.90;;;;;;;-0.78;100.00;99006.00;10453472;28;20044;-65
2023/01/17 22:43:33;;;;;;;1999.90;999.90;;;;;;;-0.99;100.00;99008.53;10499570;28;20052;-65
2023/01/17 22:48:36;;;;;;;1999.90;999.90;;;;;;;-1.15;100.00;99012.56;10500509;28;20045;-65
2023/01/17 22:53:40;;;;;;;1999.90;999.90;;;;;;;-0.99;100.00;99016.22;10497631;28;20053;-65
2023/01/17 22:58:43;;;;;;;1999.90;999.90;;;;;;;-0.90;100.00;99019.34;10479765;28;20052;-65
2023/01/17 23:03:54;;;;;;;1999.90;999.90;;;;;;;-1.03;100.00;99017.22;10482362;28;20123;-65
2023/01/17 23:08:58;;;;;;;1999.90;999.90;;;;;;;-0.91;100.00;99022.78;10499116;28;20048;-65
2023/01/17 23:14:01;;;;;;;1999.90;999.90;;;;;;;-1.12;100.00;99020.16;10495394;28;20479;-65
2023/01/17 23:19:21;;;;;;;1999.90;999.90;;;;;;;-1.03;100.00;99024.09;10498094;28;20373;-65
2023/01/17 23:24:23;;;;;;;1999.90;999.90;;;;;;;-0.87;100.00;99024.38;10481561;28;20056;-65
2023/01/17 23:29:26;;;;;;;1999.90;999.90;;;;;;;-0.86;100.00;99020.88;10498658;28;20048;-65
2023/01/17 23:34:28;;;;;;;1999.90;999.90;;;;;;;-0.95;100.00;99022.91;10497959;28;20119;-65
2023/01/17 23:39:30;;;;;;;1999.90;999.90;;;;;;;-0.87;100.00;99024.38;10494288;28;20118;-66
2023/01/17 23:44:32;;;;;;;1999.90;999.90;;;;;;;-0.97;100.00;99029.84;10497683;28;20489;-66
2023/01/17 23:49:35;;;;;;;1999.90;999.90;;;;;;;-0.91;100.00;99025.38;10497091;28;20044;-65
2023/01/17 23:54:37;;;;;;;1999.90;999.90;;;;;;;-0.73;100.00;99032.34;10498165;28;20114;-65
2023/01/17 23:59:40;;;;;;;1999.90;999.90;;;;;;;-0.68;100.00;99025.31;10493752;28;20070;-65
